aviador You're here:

KSBP Decoded Metar

SAN LUIS OBISPO in CA, USA
Report Time2018-04-23 22:56:00
UTC Time2018-04-23 23:02:00
Flight Rules vfr VFR
Wind310° at 10 kt
W.Decomp.*RWY 29: 10.0 kt HW 0.9 kt RCW
RWY 25: 7.1 kt HW 7.1 kt RCW
W.Rank310° ranks 1
Current wind is below 310° avg. (10.5)
Visibility9999 m
Phenomena:N/A
Clouds:N/A
Expected CloudBase > 2,800 ft AGL from Temp-Dew spread
CeilingNone
Temp19°C (ISA +4)
Dew Point12°C (64% RH)
AAT16.0°C
QNH1015 hPa
Density Alt830 ft
Elevation194 ft
Report Wrong Elevation
Raw Report
KSBP 232256Z 31010KT 10SM CLR 19/12 A2998 RMK AO2 SLP151
T01940122=

Extra information for KSBP:More info

Metar Taf Metar & Taf Last 4 Metars F.Rules Stats Wind Profile Meteogram Temp Stats Airport Information Weather charts Add Link Nearby VenuesMetar ALERT Operation Metar Decoded Social comments

AIRNAV info for KSBP